sensor_id;sensor_type;location;lat;lon;timestamp;temperature;humidity
7902;DHT22;3996;49.674;10.716;2023-03-03T00:00:12;3.00;26.30
7902;DHT22;3996;49.674;10.716;2023-03-03T00:02:38;3.10;26.10
7902;DHT22;3996;49.674;10.716;2023-03-03T00:05:04;3.10;25.60
7902;DHT22;3996;49.674;10.716;2023-03-03T00:07:30;3.20;25.30
7902;DHT22;3996;49.674;10.716;2023-03-03T00:09:55;3.10;26.80
7902;DHT22;3996;49.674;10.716;2023-03-03T00:12:29;3.10;26.00
7902;DHT22;3996;49.674;10.716;2023-03-03T00:14:55;2.90;26.00
7902;DHT22;3996;49.674;10.716;2023-03-03T00:17:26;3.00;26.00
7902;DHT22;3996;49.674;10.716;2023-03-03T00:19:52;3.10;26.10
7902;DHT22;3996;49.674;10.716;2023-03-03T00:22:29;3.10;25.50
7902;DHT22;3996;49.674;10.716;2023-03-03T00:27:43;2.70;26.40
7902;DHT22;3996;49.674;10.716;2023-03-03T00:30:26;2.80;26.20
7902;DHT22;3996;49.674;10.716;2023-03-03T00:32:53;2.70;25.90
7902;DHT22;3996;49.674;10.716;2023-03-03T00:35:29;2.70;26.50
7902;DHT22;3996;49.674;10.716;2023-03-03T00:37:57;2.70;26.20
7902;DHT22;3996;49.674;10.716;2023-03-03T00:42:58;2.70;26.10
7902;DHT22;3996;49.674;10.716;2023-03-03T00:45:32;2.70;25.80
7902;DHT22;3996;49.674;10.716;2023-03-03T00:48:20;2.70;26.40
7902;DHT22;3996;49.674;10.716;2023-03-03T00:50:46;2.70;26.60
7902;DHT22;3996;49.674;10.716;2023-03-03T00:53:16;2.60;27.10
7902;DHT22;3996;49.674;10.716;2023-03-03T00:55:44;2.60;27.10
7902;DHT22;3996;49.674;10.716;2023-03-03T00:58:10;2.50;27.00
7902;DHT22;3996;49.674;10.716;2023-03-03T01:00:36;2.50;27.00
7902;DHT22;3996;49.674;10.716;2023-03-03T01:03:05;2.50;27.00
7902;DHT22;3996;49.674;10.716;2023-03-03T01:05:31;2.50;27.20
7902;DHT22;3996;49.674;10.716;2023-03-03T01:07:56;2.30;27.70
7902;DHT22;3996;49.674;10.716;2023-03-03T01:10:23;2.30;27.60
7902;DHT22;3996;49.674;10.716;2023-03-03T01:12:48;2.40;27.30
7902;DHT22;3996;49.674;10.716;2023-03-03T01:15:14;2.20;27.80
7902;DHT22;3996;49.674;10.716;2023-03-03T01:17:41;2.30;27.70
7902;DHT22;3996;49.674;10.716;2023-03-03T01:20:09;2.30;27.20
7902;DHT22;3996;49.674;10.716;2023-03-03T01:22:35;2.30;27.70
7902;DHT22;3996;49.674;10.716;2023-03-03T01:25:00;2.20;27.30
7902;DHT22;3996;49.674;10.716;2023-03-03T01:27:28;2.20;27.70
7902;DHT22;3996;49.674;10.716;2023-03-03T01:29:54;2.10;27.40
7902;DHT22;3996;49.674;10.716;2023-03-03T01:32:21;2.20;27.60
7902;DHT22;3996;49.674;10.716;2023-03-03T01:34:47;2.20;27.60
7902;DHT22;3996;49.674;10.716;2023-03-03T01:37:13;2.10;27.50
7902;DHT22;3996;49.674;10.716;2023-03-03T01:39:38;2.00;28.20
7902;DHT22;3996;49.674;10.716;2023-03-03T01:42:04;2.00;28.50
7902;DHT22;3996;49.674;10.716;2023-03-03T01:44:30;2.00;28.70
7902;DHT22;3996;49.674;10.716;2023-03-03T01:47:18;2.00;28.40
7902;DHT22;3996;49.674;10.716;2023-03-03T01:49:55;2.00;28.40
7902;DHT22;3996;49.674;10.716;2023-03-03T01:52:30;2.00;28.60
7902;DHT22;3996;49.674;10.716;2023-03-03T01:55:40;2.00;28.40
7902;DHT22;3996;49.674;10.716;2023-03-03T01:57:53;1.70;29.50
7902;DHT22;3996;49.674;10.716;2023-03-03T02:00:21;1.80;29.00
7902;DHT22;3996;49.674;10.716;2023-03-03T02:02:47;1.80;29.30
7902;DHT22;3996;49.674;10.716;2023-03-03T02:05:14;1.70;29.80
7902;DHT22;3996;49.674;10.716;2023-03-03T02:07:40;1.50;30.50
7902;DHT22;3996;49.674;10.716;2023-03-03T02:10:11;1.60;29.90
7902;DHT22;3996;49.674;10.716;2023-03-03T02:12:50;1.60;29.90
7902;DHT22;3996;49.674;10.716;2023-03-03T02:15:18;1.50;29.80
7902;DHT22;3996;49.674;10.716;2023-03-03T02:17:45;1.50;29.80
7902;DHT22;3996;49.674;10.716;2023-03-03T02:22:54;1.50;30.40
7902;DHT22;3996;49.674;10.716;2023-03-03T02:25:44;1.60;30.50
7902;DHT22;3996;49.674;10.716;2023-03-03T02:28:14;1.70;30.10
7902;DHT22;3996;49.674;10.716;2023-03-03T02:30:39;1.60;30.10
7902;DHT22;3996;49.674;10.716;2023-03-03T02:33:06;1.60;30.90
7902;DHT22;3996;49.674;10.716;2023-03-03T02:35:34;1.60;30.70
7902;DHT22;3996;49.674;10.716;2023-03-03T02:46:07;1.50;30.60
7902;DHT22;3996;49.674;10.716;2023-03-03T02:48:32;1.50;30.70
7902;DHT22;3996;49.674;10.716;2023-03-03T02:50:58;1.40;30.80
7902;DHT22;3996;49.674;10.716;2023-03-03T02:53:24;1.30;31.60
7902;DHT22;3996;49.674;10.716;2023-03-03T02:55:49;1.40;31.90
7902;DHT22;3996;49.674;10.716;2023-03-03T02:58:15;1.40;31.20
7902;DHT22;3996;49.674;10.716;2023-03-03T03:00:40;1.20;32.40
7902;DHT22;3996;49.674;10.716;2023-03-03T03:03:06;1.20;33.00
7902;DHT22;3996;49.674;10.716;2023-03-03T03:05:31;1.20;32.00
7902;DHT22;3996;49.674;10.716;2023-03-03T03:07:57;1.20;32.10
7902;DHT22;3996;49.674;10.716;2023-03-03T03:10:22;1.20;31.70
7902;DHT22;3996;49.674;10.716;2023-03-03T03:12:48;1.20;32.40
7902;DHT22;3996;49.674;10.716;2023-03-03T03:15:13;1.30;32.40
7902;DHT22;3996;49.674;10.716;2023-03-03T03:17:40;1.20;32.50
7902;DHT22;3996;49.674;10.716;2023-03-03T03:20:06;1.20;32.20
7902;DHT22;3996;49.674;10.716;2023-03-03T03:22:32;1.10;32.70
7902;DHT22;3996;49.674;10.716;2023-03-03T03:24:57;1.10;32.90
7902;DHT22;3996;49.674;10.716;2023-03-03T03:27:23;1.20;32.20
7902;DHT22;3996;49.674;10.716;2023-03-03T03:29:49;1.10;32.70
7902;DHT22;3996;49.674;10.716;2023-03-03T03:32:14;1.10;32.90
7902;DHT22;3996;49.674;10.716;2023-03-03T03:34:40;1.10;32.80
7902;DHT22;3996;49.674;10.716;2023-03-03T03:37:05;1.10;32.70
7902;DHT22;3996;49.674;10.716;2023-03-03T03:39:34;1.10;33.00
7902;DHT22;3996;49.674;10.716;2023-03-03T03:41:59;1.00;33.70
7902;DHT22;3996;49.674;10.716;2023-03-03T03:44:25;0.90;33.60
7902;DHT22;3996;49.674;10.716;2023-03-03T03:46:51;0.90;33.80
7902;DHT22;3996;49.674;10.716;2023-03-03T03:49:16;0.90;34.40
7902;DHT22;3996;49.674;10.716;2023-03-03T03:51:42;0.90;33.60
7902;DHT22;3996;49.674;10.716;2023-03-03T03:54:08;0.80;34.20
7902;DHT22;3996;49.674;10.716;2023-03-03T03:56:33;0.80;34.50
7902;DHT22;3996;49.674;10.716;2023-03-03T03:58:59;0.80;34.40
7902;DHT22;3996;49.674;10.716;2023-03-03T04:01:25;0.80;34.10
7902;DHT22;3996;49.674;10.716;2023-03-03T04:03:51;0.90;33.60
7902;DHT22;3996;49.674;10.716;2023-03-03T04:06:17;0.90;33.50
7902;DHT22;3996;49.674;10.716;2023-03-03T04:08:42;0.90;33.80
7902;DHT22;3996;49.674;10.716;2023-03-03T04:11:08;0.90;33.60
7902;DHT22;3996;49.674;10.716;2023-03-03T04:13:33;0.90;33.60
7902;DHT22;3996;49.674;10.716;2023-03-03T04:16:00;0.90;33.60
7902;DHT22;3996;49.674;10.716;2023-03-03T04:18:26;0.90;33.60
7902;DHT22;3996;49.674;10.716;2023-03-03T04:20:52;0.80;33.70
7902;DHT22;3996;49.674;10.716;2023-03-03T04:23:19;0.60;34.80
7902;DHT22;3996;49.674;10.716;2023-03-03T04:25:45;0.50;35.20
7902;DHT22;3996;49.674;10.716;2023-03-03T04:28:11;0.60;34.40
7902;DHT22;3996;49.674;10.716;2023-03-03T04:30:37;0.70;34.30
7902;DHT22;3996;49.674;10.716;2023-03-03T04:33:02;0.70;34.20
7902;DHT22;3996;49.674;10.716;2023-03-03T04:35:28;0.40;35.10
7902;DHT22;3996;49.674;10.716;2023-03-03T04:37:53;0.50;35.10
7902;DHT22;3996;49.674;10.716;2023-03-03T04:40:19;0.50;34.70
7902;DHT22;3996;49.674;10.716;2023-03-03T04:42:45;0.50;34.50
7902;DHT22;3996;49.674;10.716;2023-03-03T04:45:10;0.40;35.10
7902;DHT22;3996;49.674;10.716;2023-03-03T04:47:36;0.30;35.80
7902;DHT22;3996;49.674;10.716;2023-03-03T04:50:02;0.30;36.00
7902;DHT22;3996;49.674;10.716;2023-03-03T04:52:27;0.30;36.10
7902;DHT22;3996;49.674;10.716;2023-03-03T04:54:53;0.30;36.20
7902;DHT22;3996;49.674;10.716;2023-03-03T04:57:18;0.40;36.00
7902;DHT22;3996;49.674;10.716;2023-03-03T04:59:44;0.40;35.20
7902;DHT22;3996;49.674;10.716;2023-03-03T05:02:10;0.40;35.10
7902;DHT22;3996;49.674;10.716;2023-03-03T05:04:37;0.40;34.90
7902;DHT22;3996;49.674;10.716;2023-03-03T05:07:03;0.30;35.40
7902;DHT22;3996;49.674;10.716;2023-03-03T05:09:29;0.20;36.10
7902;DHT22;3996;49.674;10.716;2023-03-03T05:11:54;0.20;36.70
7902;DHT22;3996;49.674;10.716;2023-03-03T05:14:20;0.10;36.70
7902;DHT22;3996;49.674;10.716;2023-03-03T05:16:46;0.20;36.50
7902;DHT22;3996;49.674;10.716;2023-03-03T05:19:11;0.10;36.60
7902;DHT22;3996;49.674;10.716;2023-03-03T05:21:37;0.10;36.90
7902;DHT22;3996;49.674;10.716;2023-03-03T05:24:09;0.10;37.20
7902;DHT22;3996;49.674;10.716;2023-03-03T05:26:35;0.10;37.60
7902;DHT22;3996;49.674;10.716;2023-03-03T05:29:01;0.10;37.80
7902;DHT22;3996;49.674;10.716;2023-03-03T05:31:27;0.20;37.20
7902;DHT22;3996;49.674;10.716;2023-03-03T05:33:53;0.20;36.80
7902;DHT22;3996;49.674;10.716;2023-03-03T05:36:19;0.30;36.20
7902;DHT22;3996;49.674;10.716;2023-03-03T05:38:45;0.30;36.20
7902;DHT22;3996;49.674;10.716;2023-03-03T05:41:10;0.20;36.40
7902;DHT22;3996;49.674;10.716;2023-03-03T05:43:36;0.10;37.30
7902;DHT22;3996;49.674;10.716;2023-03-03T05:46:02;0.10;36.70
7902;DHT22;3996;49.674;10.716;2023-03-03T05:48:28;0.10;36.70
7902;DHT22;3996;49.674;10.716;2023-03-03T05:50:53;0.10;36.90
7902;DHT22;3996;49.674;10.716;2023-03-03T05:53:22;0.00;37.40
7902;DHT22;3996;49.674;10.716;2023-03-03T05:55:47;-0.20;37.90
7902;DHT22;3996;49.674;10.716;2023-03-03T05:58:13;-0.10;38.20
7902;DHT22;3996;49.674;10.716;2023-03-03T06:00:39;-0.10;38.50
7902;DHT22;3996;49.674;10.716;2023-03-03T06:03:04;0.00;38.40
7902;DHT22;3996;49.674;10.716;2023-03-03T06:05:30;0.10;37.30
7902;DHT22;3996;49.674;10.716;2023-03-03T06:07:56;0.10;36.90
7902;DHT22;3996;49.674;10.716;2023-03-03T06:10:21;0.10;37.70
7902;DHT22;3996;49.674;10.716;2023-03-03T06:12:47;0.00;38.80
7902;DHT22;3996;49.674;10.716;2023-03-03T06:15:12;0.10;37.80
7902;DHT22;3996;49.674;10.716;2023-03-03T06:17:38;0.20;37.40
7902;DHT22;3996;49.674;10.716;2023-03-03T06:20:04;0.20;37.00
7902;DHT22;3996;49.674;10.716;2023-03-03T06:22:31;0.30;37.40
7902;DHT22;3996;49.674;10.716;2023-03-03T06:24:57;0.50;37.10
7902;DHT22;3996;49.674;10.716;2023-03-03T06:27:22;1.00;36.40
7902;DHT22;3996;49.674;10.716;2023-03-03T06:29:48;1.80;33.10
7902;DHT22;3996;49.674;10.716;2023-03-03T06:32:14;2.30;30.40
7902;DHT22;3996;49.674;10.716;2023-03-03T06:34:39;2.70;29.30
7902;DHT22;3996;49.674;10.716;2023-03-03T06:37:05;2.60;29.10
7902;DHT22;3996;49.674;10.716;2023-03-03T06:39:32;2.80;28.90
7902;DHT22;3996;49.674;10.716;2023-03-03T06:41:58;2.90;28.30
7902;DHT22;3996;49.674;10.716;2023-03-03T06:44:23;2.90;29.20
7902;DHT22;3996;49.674;10.716;2023-03-03T06:46:49;3.50;27.70
7902;DHT22;3996;49.674;10.716;2023-03-03T06:49:14;4.50;25.70
7902;DHT22;3996;49.674;10.716;2023-03-03T06:51:40;5.00;24.30
7902;DHT22;3996;49.674;10.716;2023-03-03T06:54:49;5.30;23.30
7902;DHT22;3996;49.674;10.716;2023-03-03T06:57:28;5.60;23.10
7902;DHT22;3996;49.674;10.716;2023-03-03T06:59:57;5.70;23.10
7902;DHT22;3996;49.674;10.716;2023-03-03T07:02:24;6.10;22.30
7902;DHT22;3996;49.674;10.716;2023-03-03T07:04:50;6.50;21.80
7902;DHT22;3996;49.674;10.716;2023-03-03T07:07:20;6.80;20.80
7902;DHT22;3996;49.674;10.716;2023-03-03T07:09:54;7.10;20.50
7902;DHT22;3996;49.674;10.716;2023-03-03T07:12:23;7.40;20.20
7902;DHT22;3996;49.674;10.716;2023-03-03T07:14:54;7.70;19.20
7902;DHT22;3996;49.674;10.716;2023-03-03T07:17:23;8.10;18.30
7902;DHT22;3996;49.674;10.716;2023-03-03T07:19:49;8.30;17.90
7902;DHT22;3996;49.674;10.716;2023-03-03T07:22:24;8.90;16.90
7902;DHT22;3996;49.674;10.716;2023-03-03T07:24:52;9.40;15.90
7902;DHT22;3996;49.674;10.716;2023-03-03T07:29:46;9.20;14.60
7902;DHT22;3996;49.674;10.716;2023-03-03T07:32:25;8.90;15.90
7902;DHT22;3996;49.674;10.716;2023-03-03T07:34:53;9.10;16.60
7902;DHT22;3996;49.674;10.716;2023-03-03T07:37:34;9.60;16.40
7902;DHT22;3996;49.674;10.716;2023-03-03T07:42:52;10.20;14.40
7902;DHT22;3996;49.674;10.716;2023-03-03T07:45:28;9.90;16.10
7902;DHT22;3996;49.674;10.716;2023-03-03T07:50:39;8.10;18.90
7902;DHT22;3996;49.674;10.716;2023-03-03T07:53:13;7.70;20.90
7902;DHT22;3996;49.674;10.716;2023-03-03T07:55:40;7.60;22.80
7902;DHT22;3996;49.674;10.716;2023-03-03T08:03:24;9.00;21.50
7902;DHT22;3996;49.674;10.716;2023-03-03T08:05:51;11.00;17.50
7902;DHT22;3996;49.674;10.716;2023-03-03T08:10:48;12.20;14.50
7902;DHT22;3996;49.674;10.716;2023-03-03T08:13:27;12.60;13.70
7902;DHT22;3996;49.674;10.716;2023-03-03T08:16:01;12.70;14.10
7902;DHT22;3996;49.674;10.716;2023-03-03T08:18:29;12.80;13.20
7902;DHT22;3996;49.674;10.716;2023-03-03T08:23:32;13.30;12.70
7902;DHT22;3996;49.674;10.716;2023-03-03T08:25:58;13.50;13.00
7902;DHT22;3996;49.674;10.716;2023-03-03T08:28:24;13.50;11.90
7902;DHT22;3996;49.674;10.716;2023-03-03T08:30:50;13.80;12.00
7902;DHT22;3996;49.674;10.716;2023-03-03T08:33:15;14.00;11.20
7902;DHT22;3996;49.674;10.716;2023-03-03T08:35:42;13.70;11.40
7902;DHT22;3996;49.674;10.716;2023-03-03T08:38:08;14.00;11.50
7902;DHT22;3996;49.674;10.716;2023-03-03T08:40:34;13.90;12.10
7902;DHT22;3996;49.674;10.716;2023-03-03T08:43:00;13.80;12.00
7902;DHT22;3996;49.674;10.716;2023-03-03T08:45:26;13.70;12.00
7902;DHT22;3996;49.674;10.716;2023-03-03T08:47:51;13.10;12.70
7902;DHT22;3996;49.674;10.716;2023-03-03T08:50:18;11.90;13.20
7902;DHT22;3996;49.674;10.716;2023-03-03T08:52:44;11.10;14.40
7902;DHT22;3996;49.674;10.716;2023-03-03T08:55:10;11.00;13.90
7902;DHT22;3996;49.674;10.716;2023-03-03T08:57:36;11.50;13.80
7902;DHT22;3996;49.674;10.716;2023-03-03T09:00:04;11.80;13.20
7902;DHT22;3996;49.674;10.716;2023-03-03T09:02:30;12.90;11.80
7902;DHT22;3996;49.674;10.716;2023-03-03T09:04:56;14.30;11.30
7902;DHT22;3996;49.674;10.716;2023-03-03T09:07:21;14.80;10.50
7902;DHT22;3996;49.674;10.716;2023-03-03T09:09:47;14.90;10.10
7902;DHT22;3996;49.674;10.716;2023-03-03T09:14:42;14.10;10.20
7902;DHT22;3996;49.674;10.716;2023-03-03T09:17:32;13.90;10.70
7902;DHT22;3996;49.674;10.716;2023-03-03T09:20:01;14.50;10.10
7902;DHT22;3996;49.674;10.716;2023-03-03T09:22:37;14.40;11.10
7902;DHT22;3996;49.674;10.716;2023-03-03T09:25:17;13.00;11.50
7902;DHT22;3996;49.674;10.716;2023-03-03T09:27:45;12.10;11.40
7902;DHT22;3996;49.674;10.716;2023-03-03T09:32:52;13.40;11.20
7902;DHT22;3996;49.674;10.716;2023-03-03T09:35:35;14.70;10.30
7902;DHT22;3996;49.674;10.716;2023-03-03T09:38:17;15.30;9.60
7902;DHT22;3996;49.674;10.716;2023-03-03T09:41:35;15.40;9.20
7902;DHT22;3996;49.674;10.716;2023-03-03T09:49:55;15.20;9.10
7902;DHT22;3996;49.674;10.716;2023-03-03T09:58:24;15.00;9.60
7902;DHT22;3996;49.674;10.716;2023-03-03T10:01:08;14.30;10.80
7902;DHT22;3996;49.674;10.716;2023-03-03T10:03:58;13.90;10.20
7902;DHT22;3996;49.674;10.716;2023-03-03T10:06:43;13.10;10.90
7902;DHT22;3996;49.674;10.716;2023-03-03T10:09:39;12.60;11.60
7902;DHT22;3996;49.674;10.716;2023-03-03T10:12:18;12.30;11.60
7902;DHT22;3996;49.674;10.716;2023-03-03T10:17:50;12.00;12.10
7902;DHT22;3996;49.674;10.716;2023-03-03T10:45:01;12.00;12.40
7902;DHT22;3996;49.674;10.716;2023-03-03T11:01:25;12.30;11.70
7902;DHT22;3996;49.674;10.716;2023-03-03T11:04:06;12.10;12.30
7902;DHT22;3996;49.674;10.716;2023-03-03T11:09:45;12.00;11.70
7902;DHT22;3996;49.674;10.716;2023-03-03T11:18:14;11.90;12.20
7902;DHT22;3996;49.674;10.716;2023-03-03T11:29:14;12.10;12.20
7902;DHT22;3996;49.674;10.716;2023-03-03T11:31:41;12.20;11.90
7902;DHT22;3996;49.674;10.716;2023-03-03T11:37:10;12.20;12.00
7902;DHT22;3996;49.674;10.716;2023-03-03T11:39:39;12.20;12.00
7902;DHT22;3996;49.674;10.716;2023-03-03T11:42:25;12.30;12.50
7902;DHT22;3996;49.674;10.716;2023-03-03T11:44:58;12.20;12.40
7902;DHT22;3996;49.674;10.716;2023-03-03T11:47:52;12.40;11.70
7902;DHT22;3996;49.674;10.716;2023-03-03T11:50:26;12.30;11.70
7902;DHT22;3996;49.674;10.716;2023-03-03T11:55:45;12.30;11.80
7902;DHT22;3996;49.674;10.716;2023-03-03T12:03:52;12.30;10.90
7902;DHT22;3996;49.674;10.716;2023-03-03T12:06:39;12.20;10.90
7902;DHT22;3996;49.674;10.716;2023-03-03T12:28:37;12.60;8.60
7902;DHT22;3996;49.674;10.716;2023-03-03T12:33:57;12.30;7.80
7902;DHT22;3996;49.674;10.716;2023-03-03T12:47:02;13.10;9.10
7902;DHT22;3996;49.674;10.716;2023-03-03T12:49:45;13.10;8.90
7902;DHT22;3996;49.674;10.716;2023-03-03T13:03:54;13.00;8.90
7902;DHT22;3996;49.674;10.716;2023-03-03T13:06:28;13.20;8.40
7902;DHT22;3996;49.674;10.716;2023-03-03T13:09:24;13.20;8.20
7902;DHT22;3996;49.674;10.716;2023-03-03T13:17:36;13.30;9.00
7902;DHT22;3996;49.674;10.716;2023-03-03T13:20:24;13.50;8.70
7902;DHT22;3996;49.674;10.716;2023-03-03T13:23:06;13.40;8.70
7902;DHT22;3996;49.674;10.716;2023-03-03T13:26:32;13.20;7.60
7902;DHT22;3996;49.674;10.716;2023-03-03T13:28:41;13.30;8.00
7902;DHT22;3996;49.674;10.716;2023-03-03T13:31:18;13.40;8.00
7902;DHT22;3996;49.674;10.716;2023-03-03T13:33:54;13.20;7.70
7902;DHT22;3996;49.674;10.716;2023-03-03T13:36:25;13.10;7.20
7902;DHT22;3996;49.674;10.716;2023-03-03T13:38:59;13.00;7.90
7902;DHT22;3996;49.674;10.716;2023-03-03T13:41:54;13.20;8.80
7902;DHT22;3996;49.674;10.716;2023-03-03T13:44:37;12.80;8.10
7902;DHT22;3996;49.674;10.716;2023-03-03T13:52:22;13.10;8.00
7902;DHT22;3996;49.674;10.716;2023-03-03T14:00:33;12.70;7.60
7902;DHT22;3996;49.674;10.716;2023-03-03T14:11:21;12.90;6.70
7902;DHT22;3996;49.674;10.716;2023-03-03T14:19:13;12.70;6.70
7902;DHT22;3996;49.674;10.716;2023-03-03T14:24:30;12.40;8.10
7902;DHT22;3996;49.674;10.716;2023-03-03T14:26:59;12.50;8.50
7902;DHT22;3996;49.674;10.716;2023-03-03T14:29:29;12.40;8.30
7902;DHT22;3996;49.674;10.716;2023-03-03T14:31:57;12.50;8.70
7902;DHT22;3996;49.674;10.716;2023-03-03T14:36:50;12.60;9.00
7902;DHT22;3996;49.674;10.716;2023-03-03T14:39:49;12.20;9.00
7902;DHT22;3996;49.674;10.716;2023-03-03T14:42:48;12.30;9.40
7902;DHT22;3996;49.674;10.716;2023-03-03T14:47:56;12.10;9.40
7902;DHT22;3996;49.674;10.716;2023-03-03T14:50:36;12.10;9.30
7902;DHT22;3996;49.674;10.716;2023-03-03T14:55:37;12.40;9.20
7902;DHT22;3996;49.674;10.716;2023-03-03T14:58:11;12.40;9.50
7902;DHT22;3996;49.674;10.716;2023-03-03T15:00:48;12.20;9.80
7902;DHT22;3996;49.674;10.716;2023-03-03T15:03:26;11.80;9.60
7902;DHT22;3996;49.674;10.716;2023-03-03T15:05:54;11.60;10.00
7902;DHT22;3996;49.674;10.716;2023-03-03T15:08:33;11.50;10.40
7902;DHT22;3996;49.674;10.716;2023-03-03T15:11:20;11.40;9.70
7902;DHT22;3996;49.674;10.716;2023-03-03T15:13:48;11.30;9.60
7902;DHT22;3996;49.674;10.716;2023-03-03T15:16:24;11.10;10.10
7902;DHT22;3996;49.674;10.716;2023-03-03T15:21:30;10.80;10.10
7902;DHT22;3996;49.674;10.716;2023-03-03T15:26:54;10.50;10.40
7902;DHT22;3996;49.674;10.716;2023-03-03T15:29:40;10.50;10.20
7902;DHT22;3996;49.674;10.716;2023-03-03T15:32:43;10.30;9.80
7902;DHT22;3996;49.674;10.716;2023-03-03T15:35:46;10.30;10.00
7902;DHT22;3996;49.674;10.716;2023-03-03T15:38:22;10.10;9.60
7902;DHT22;3996;49.674;10.716;2023-03-03T15:44:05;10.10;9.40
7902;DHT22;3996;49.674;10.716;2023-03-03T15:52:24;10.00;9.00
7902;DHT22;3996;49.674;10.716;2023-03-03T16:03:33;9.80;10.30
7902;DHT22;3996;49.674;10.716;2023-03-03T16:06:05;9.80;10.60
7902;DHT22;3996;49.674;10.716;2023-03-03T16:09:02;9.80;11.00
7902;DHT22;3996;49.674;10.716;2023-03-03T16:12:01;9.80;10.90
7902;DHT22;3996;49.674;10.716;2023-03-03T16:14:46;9.80;11.20
7902;DHT22;3996;49.674;10.716;2023-03-03T16:26:12;9.40;12.70
7902;DHT22;3996;49.674;10.716;2023-03-03T16:28:55;9.30;12.40
7902;DHT22;3996;49.674;10.716;2023-03-03T16:31:28;9.20;13.10
7902;DHT22;3996;49.674;10.716;2023-03-03T16:39:33;8.90;13.30
7902;DHT22;3996;49.674;10.716;2023-03-03T16:58:41;8.40;14.10
7902;DHT22;3996;49.674;10.716;2023-03-03T17:01:38;8.30;14.40
7902;DHT22;3996;49.674;10.716;2023-03-03T17:09:21;8.00;15.80
7902;DHT22;3996;49.674;10.716;2023-03-03T17:11:56;7.80;16.30
7902;DHT22;3996;49.674;10.716;2023-03-03T17:22:13;7.40;17.30
7902;DHT22;3996;49.674;10.716;2023-03-03T17:30:18;7.40;17.30
7902;DHT22;3996;49.674;10.716;2023-03-03T17:32:59;7.20;17.40
7902;DHT22;3996;49.674;10.716;2023-03-03T17:41:05;7.00;18.00
7902;DHT22;3996;49.674;10.716;2023-03-03T17:43:59;6.90;18.30
7902;DHT22;3996;49.674;10.716;2023-03-03T17:46:42;6.70;18.50
7902;DHT22;3996;49.674;10.716;2023-03-03T17:57:59;6.50;18.40
7902;DHT22;3996;49.674;10.716;2023-03-03T18:03:35;6.40;18.60
7902;DHT22;3996;49.674;10.716;2023-03-03T18:06:24;6.40;18.60
7902;DHT22;3996;49.674;10.716;2023-03-03T18:22:57;6.10;18.40
7902;DHT22;3996;49.674;10.716;2023-03-03T18:26:04;6.20;19.00
7902;DHT22;3996;49.674;10.716;2023-03-03T18:37:51;5.50;21.20
7902;DHT22;3996;49.674;10.716;2023-03-03T18:40:20;5.40;21.60
7902;DHT22;3996;49.674;10.716;2023-03-03T18:42:49;5.30;21.80
7902;DHT22;3996;49.674;10.716;2023-03-03T18:50:36;5.30;22.10
7902;DHT22;3996;49.674;10.716;2023-03-03T18:55:45;5.10;23.20
7902;DHT22;3996;49.674;10.716;2023-03-03T19:00:50;4.80;23.80
7902;DHT22;3996;49.674;10.716;2023-03-03T19:03:29;4.90;23.10
7902;DHT22;3996;49.674;10.716;2023-03-03T19:05:57;4.90;23.20
7902;DHT22;3996;49.674;10.716;2023-03-03T19:08:42;4.90;23.20
7902;DHT22;3996;49.674;10.716;2023-03-03T19:16:36;4.80;23.60
7902;DHT22;3996;49.674;10.716;2023-03-03T19:19:29;4.70;23.90
7902;DHT22;3996;49.674;10.716;2023-03-03T19:22:25;4.60;23.70
7902;DHT22;3996;49.674;10.716;2023-03-03T19:30:44;4.50;24.50
7902;DHT22;3996;49.674;10.716;2023-03-03T19:33:35;4.40;24.60
7902;DHT22;3996;49.674;10.716;2023-03-03T19:39:07;4.40;24.40
7902;DHT22;3996;49.674;10.716;2023-03-03T19:41:54;4.30;24.30
7902;DHT22;3996;49.674;10.716;2023-03-03T19:44:38;4.30;24.60
7902;DHT22;3996;49.674;10.716;2023-03-03T19:48:04;4.30;24.40
7902;DHT22;3996;49.674;10.716;2023-03-03T19:50:31;4.30;24.60
7902;DHT22;3996;49.674;10.716;2023-03-03T19:55:52;3.90;25.60
7902;DHT22;3996;49.674;10.716;2023-03-03T20:01:20;3.60;26.60
7902;DHT22;3996;49.674;10.716;2023-03-03T20:07:31;3.70;26.50
7902;DHT22;3996;49.674;10.716;2023-03-03T20:23:37;3.60;26.60
7902;DHT22;3996;49.674;10.716;2023-03-03T20:35:04;3.30;27.50
7902;DHT22;3996;49.674;10.716;2023-03-03T20:49:44;3.40;28.30
7902;DHT22;3996;49.674;10.716;2023-03-03T20:52:06;3.40;27.60
7902;DHT22;3996;49.674;10.716;2023-03-03T20:58:02;3.10;28.60
7902;DHT22;3996;49.674;10.716;2023-03-03T21:00:38;3.00;28.70
7902;DHT22;3996;49.674;10.716;2023-03-03T21:03:13;3.00;29.00
7902;DHT22;3996;49.674;10.716;2023-03-03T21:06:02;2.90;29.50
7902;DHT22;3996;49.674;10.716;2023-03-03T21:08:45;3.00;29.70
7902;DHT22;3996;49.674;10.716;2023-03-03T21:11:13;3.10;29.70
7902;DHT22;3996;49.674;10.716;2023-03-03T21:13:41;3.10;29.40
7902;DHT22;3996;49.674;10.716;2023-03-03T21:16:28;3.00;29.90
7902;DHT22;3996;49.674;10.716;2023-03-03T21:21:34;3.10;29.50
7902;DHT22;3996;49.674;10.716;2023-03-03T21:24:00;3.10;29.40
7902;DHT22;3996;49.674;10.716;2023-03-03T21:29:18;3.10;29.30
7902;DHT22;3996;49.674;10.716;2023-03-03T21:31:46;3.20;29.50
7902;DHT22;3996;49.674;10.716;2023-03-03T21:34:36;3.00;29.40
7902;DHT22;3996;49.674;10.716;2023-03-03T21:37:07;2.90;29.80
7902;DHT22;3996;49.674;10.716;2023-03-03T21:39:38;2.80;30.10
7902;DHT22;3996;49.674;10.716;2023-03-03T21:42:09;2.70;30.30
7902;DHT22;3996;49.674;10.716;2023-03-03T21:44:46;2.60;30.50
7902;DHT22;3996;49.674;10.716;2023-03-03T21:47:19;2.60;30.40
7902;DHT22;3996;49.674;10.716;2023-03-03T21:49:46;2.40;31.30
7902;DHT22;3996;49.674;10.716;2023-03-03T21:52:14;2.50;30.30
7902;DHT22;3996;49.674;10.716;2023-03-03T21:54:41;2.40;30.40
7902;DHT22;3996;49.674;10.716;2023-03-03T21:57:07;2.40;30.40
7902;DHT22;3996;49.674;10.716;2023-03-03T21:59:33;2.20;30.90
7902;DHT22;3996;49.674;10.716;2023-03-03T22:01:58;2.20;31.00
7902;DHT22;3996;49.674;10.716;2023-03-03T22:04:24;2.20;30.30
7902;DHT22;3996;49.674;10.716;2023-03-03T22:06:49;2.20;31.00
7902;DHT22;3996;49.674;10.716;2023-03-03T22:09:17;2.10;31.40
7902;DHT22;3996;49.674;10.716;2023-03-03T22:11:42;1.90;32.10
7902;DHT22;3996;49.674;10.716;2023-03-03T22:14:08;2.00;32.60
7902;DHT22;3996;49.674;10.716;2023-03-03T22:16:34;2.00;32.20
7902;DHT22;3996;49.674;10.716;2023-03-03T22:19:00;2.00;32.30
7902;DHT22;3996;49.674;10.716;2023-03-03T22:21:25;2.00;31.30
7902;DHT22;3996;49.674;10.716;2023-03-03T22:23:51;2.10;31.00
7902;DHT22;3996;49.674;10.716;2023-03-03T22:26:17;2.20;30.80
7902;DHT22;3996;49.674;10.716;2023-03-03T22:28:42;2.00;30.80
7902;DHT22;3996;49.674;10.716;2023-03-03T22:31:08;1.80;32.00
7902;DHT22;3996;49.674;10.716;2023-03-03T22:33:34;1.80;32.10
7902;DHT22;3996;49.674;10.716;2023-03-03T22:35:59;1.70;32.40
7902;DHT22;3996;49.674;10.716;2023-03-03T22:38:25;1.90;31.80
7902;DHT22;3996;49.674;10.716;2023-03-03T22:40:51;1.90;31.60
7902;DHT22;3996;49.674;10.716;2023-03-03T22:43:18;1.80;31.30
7902;DHT22;3996;49.674;10.716;2023-03-03T22:45:44;1.70;32.50
7902;DHT22;3996;49.674;10.716;2023-03-03T22:48:10;1.80;31.70
7902;DHT22;3996;49.674;10.716;2023-03-03T22:50:37;1.80;31.80
7902;DHT22;3996;49.674;10.716;2023-03-03T22:53:05;1.80;31.40
7902;DHT22;3996;49.674;10.716;2023-03-03T22:55:31;1.90;31.20
7902;DHT22;3996;49.674;10.716;2023-03-03T22:58:04;1.90;31.00
7902;DHT22;3996;49.674;10.716;2023-03-03T23:00:30;1.80;31.40
7902;DHT22;3996;49.674;10.716;2023-03-03T23:02:55;1.80;31.10